NCAR-RAP Real-Time Weather Data

Output produced by METARs form (24 May 2018  10:08 UTC)
found at http://weather.rap.ucar.edu/surface/
 
Conditions at: KLOU observed 24 May 2018  09:53 UTC
Temperature: 17.8°C (64°F)
Dewpoint: 15.0°C (59°F) [RH = 84%]
Pressure (altimeter): 30.15 inches Hg (1021.1 mb)
[Sea-level pressure: 1020.5 mb]
Winds: from the NE (50 degrees) at 5 MPH (4 knots; 2.1 m/s)
Visibility: 10 or more miles (16+ km)
Ceiling: at least 12,000 feet AGL
Clouds: sky clear below 12,000 feet AGL
Present Weather: automated observation with no human augmentation;
there may or may not be significant weather present at this time
KLOU 240953Z AUTO 05004KT 10SM CLR 18/15 A3015 RMK AO2 SLP205 T01780150